createdAt,value
2023-12-27T00:02:39.333Z,1.10
2023-12-27T00:05:42.564Z,2.13
2023-12-27T00:08:46.867Z,1.90
2023-12-27T00:11:50.164Z,2.25
2023-12-27T00:14:53.244Z,1.20
2023-12-27T00:17:56.674Z,2.45
2023-12-27T00:21:00.135Z,1.92
2023-12-27T00:24:05.647Z,1.70
2023-12-27T00:27:08.804Z,2.13
2023-12-27T00:30:12.476Z,1.77
2023-12-27T00:33:16.881Z,2.05
2023-12-27T00:36:21.789Z,1.70
2023-12-27T00:39:26.344Z,1.23
2023-12-27T00:42:29.390Z,1.90
2023-12-27T00:45:32.518Z,1.63
2023-12-27T00:48:35.515Z,1.80
2023-12-27T00:51:38.971Z,2.08
2023-12-27T00:54:43.459Z,1.50
2023-12-27T00:57:46.569Z,1.45
2023-12-27T01:00:50.760Z,1.97
2023-12-27T01:03:53.876Z,1.67
2023-12-27T01:06:57.229Z,1.80
2023-12-27T01:10:00.458Z,1.80
2023-12-27T01:13:03.435Z,1.70
2023-12-27T01:16:06.786Z,1.30
2023-12-27T01:19:12.080Z,1.30
2023-12-27T01:22:15.371Z,1.85
2023-12-27T01:25:18.244Z,1.27
2023-12-27T01:28:21.385Z,1.45
2023-12-27T01:31:24.515Z,1.63
2023-12-27T01:34:27.958Z,1.65
2023-12-27T01:37:30.881Z,1.45
2023-12-27T01:40:34.106Z,1.25
2023-12-27T01:43:37.307Z,1.33
2023-12-27T01:46:40.433Z,1.10
2023-12-27T01:49:43.493Z,1.83
2023-12-27T01:52:46.967Z,1.70
2023-12-27T01:55:50.731Z,1.30
2023-12-27T01:58:53.919Z,1.90
2023-12-27T02:01:57.488Z,1.40
2023-12-27T02:05:00.710Z,1.80
2023-12-27T02:08:05.910Z,2.00
2023-12-27T02:11:08.864Z,1.23
2023-12-27T02:14:12.164Z,1.60
2023-12-27T02:17:15.622Z,1.70
2023-12-27T02:20:18.995Z,1.40
2023-12-27T02:23:23.386Z,2.03
2023-12-27T02:26:26.563Z,1.08
2023-12-27T02:29:29.730Z,1.42
2023-12-27T02:32:33.069Z,1.00
2023-12-27T02:35:36.674Z,1.20
2023-12-27T02:38:39.840Z,1.83
2023-12-27T02:41:43.045Z,1.58
2023-12-27T02:44:46.440Z,1.98
2023-12-27T02:47:49.593Z,1.30
2023-12-27T02:50:52.767Z,1.33
2023-12-27T02:53:56.121Z,1.48
2023-12-27T02:56:59.351Z,1.10
2023-12-27T03:00:04.549Z,1.67
2023-12-27T03:03:07.871Z,1.23
2023-12-27T03:06:11.160Z,1.48
2023-12-27T03:09:14.162Z,1.80
2023-12-27T03:12:17.378Z,2.13
2023-12-27T03:15:20.426Z,1.33
2023-12-27T03:18:24.031Z,1.70
2023-12-27T03:21:27.445Z,1.88
2023-12-27T03:24:30.602Z,2.05
2023-12-27T03:27:33.632Z,1.70
2023-12-27T03:30:36.662Z,2.00
2023-12-27T03:33:41.717Z,1.53
2023-12-27T03:36:44.646Z,1.73
2023-12-27T03:39:51.876Z,2.25
2023-12-27T03:42:54.970Z,1.92
2023-12-27T03:45:59.617Z,2.10
2023-12-27T03:49:02.955Z,1.53
2023-12-27T03:52:06.301Z,2.20
2023-12-27T03:55:09.550Z,1.55
2023-12-27T03:58:13.188Z,1.58
2023-12-27T04:01:21.186Z,1.55
2023-12-27T04:04:24.481Z,1.97
2023-12-27T04:07:27.551Z,6.47
2023-12-27T04:10:32.936Z,1.67
2023-12-27T04:13:35.897Z,3.45
2023-12-27T04:16:39.032Z,2.75
2023-12-27T04:19:42.076Z,2.87
2023-12-27T04:22:45.225Z,2.17
2023-12-27T04:25:48.146Z,2.20
2023-12-27T04:28:51.262Z,1.20
2023-12-27T04:31:54.441Z,1.88
2023-12-27T04:34:57.631Z,1.53
2023-12-27T04:38:01.085Z,1.65
2023-12-27T04:41:10.165Z,2.15
2023-12-27T04:44:13.004Z,2.38
2023-12-27T04:47:16.114Z,1.75
2023-12-27T04:50:19.368Z,1.93
2023-12-27T04:53:22.233Z,2.70
2023-12-27T04:56:25.355Z,3.20
2023-12-27T04:59:28.571Z,3.15
2023-12-27T05:02:31.747Z,1.95
2023-12-27T05:05:34.891Z,1.80
2023-12-27T05:08:44.143Z,1.63
2023-12-27T05:11:47.232Z,1.50
2023-12-27T05:14:50.683Z,2.33
2023-12-27T05:17:53.941Z,2.40
2023-12-27T05:20:57.271Z,1.83
2023-12-27T05:24:00.110Z,1.85
2023-12-27T05:27:03.067Z,2.10
2023-12-27T05:30:10.134Z,1.42
2023-12-27T05:33:14.700Z,1.73
2023-12-27T05:36:17.727Z,2.07
2023-12-27T05:39:20.570Z,2.47
2023-12-27T05:42:23.484Z,1.60
2023-12-27T05:45:26.602Z,2.63
2023-12-27T05:48:29.936Z,4.68
2023-12-27T05:51:34.415Z,1.87
2023-12-27T05:54:38.050Z,2.15
2023-12-27T05:57:41.510Z,2.67
2023-12-27T06:00:44.692Z,1.80
2023-12-27T06:03:47.977Z,2.95
2023-12-27T06:06:51.008Z,1.93
2023-12-27T06:09:54.066Z,1.85
2023-12-27T06:12:57.259Z,2.65
2023-12-27T06:16:00.524Z,2.30
2023-12-27T06:19:04.111Z,2.40
2023-12-27T06:22:07.438Z,3.03
2023-12-27T06:25:10.657Z,6.43
2023-12-27T06:28:13.471Z,6.03
2023-12-27T06:31:16.773Z,5.15
2023-12-27T06:34:20.306Z,4.03
2023-12-27T06:37:23.615Z,3.37
2023-12-27T06:40:26.382Z,5.97
2023-12-27T06:43:31.926Z,4.10
2023-12-27T06:46:35.977Z,4.00
2023-12-27T06:49:38.855Z,2.97
2023-12-27T06:52:41.931Z,2.80
2023-12-27T06:55:44.989Z,2.08
2023-12-27T06:58:48.125Z,2.85
2023-12-27T07:01:51.255Z,2.05
2023-12-27T07:04:55.094Z,4.00
2023-12-27T07:07:58.375Z,4.33
2023-12-27T07:11:01.433Z,5.13
2023-12-27T07:14:04.760Z,5.90
2023-12-27T07:17:08.354Z,4.70
2023-12-27T07:20:11.857Z,3.88
2023-12-27T07:23:14.913Z,2.73
2023-12-27T07:26:20.229Z,5.03
2023-12-27T07:29:23.074Z,3.40
2023-12-27T07:32:26.451Z,2.70
2023-12-27T07:35:31.290Z,6.85
2023-12-27T07:38:34.205Z,6.27
2023-12-27T07:41:37.162Z,13.57
2023-12-27T07:44:40.446Z,14.20
2023-12-27T07:47:44.338Z,9.43
2023-12-27T07:50:47.649Z,4.38
2023-12-27T07:54:16.291Z,13.60
2023-12-27T07:57:19.267Z,33.78
2023-12-27T08:00:23.038Z,12.68
2023-12-27T08:03:26.456Z,30.77
2023-12-27T08:06:29.679Z,31.50
2023-12-27T08:09:32.885Z,55.03
2023-12-27T08:12:36.206Z,33.38
2023-12-27T08:15:39.438Z,50.30
2023-12-27T08:18:42.954Z,13.85
2023-12-27T08:21:45.786Z,16.80
2023-12-27T08:24:48.830Z,10.17
2023-12-27T08:27:51.640Z,2.28
2023-12-27T08:30:54.937Z,1.60
2023-12-27T08:34:00.586Z,1.20
2023-12-27T08:37:03.658Z,1.75
2023-12-27T08:40:08.029Z,3.90
2023-12-27T08:43:13.973Z,1.80
2023-12-27T08:46:17.879Z,1.80
2023-12-27T08:49:20.771Z,1.63
2023-12-27T08:52:23.640Z,3.78
2023-12-27T08:55:26.719Z,0.87
2023-12-27T08:58:29.602Z,3.67
2023-12-27T09:01:33.080Z,1.80
2023-12-27T09:04:36.190Z,1.17
2023-12-27T09:07:39.148Z,1.30
2023-12-27T09:10:42.221Z,1.63
2023-12-27T09:13:46.523Z,1.25
2023-12-27T09:16:49.850Z,1.25
2023-12-27T09:19:53.481Z,2.83
2023-12-27T09:22:56.702Z,5.13
2023-12-27T09:25:59.723Z,2.83
2023-12-27T09:29:03.475Z,1.23
2023-12-27T09:32:06.805Z,1.42
2023-12-27T09:35:10.118Z,1.90
2023-12-27T09:38:12.987Z,1.90
2023-12-27T09:41:16.169Z,1.30
2023-12-27T09:44:21.662Z,0.90
2023-12-27T09:47:26.880Z,1.33
2023-12-27T09:50:30.423Z,1.02
2023-12-27T09:53:33.764Z,1.40
2023-12-27T09:56:37.737Z,1.43
2023-12-27T09:59:46.481Z,1.10
2023-12-27T10:02:54.254Z,1.77
2023-12-27T10:06:22.453Z,1.40
2023-12-27T10:09:25.790Z,1.33
2023-12-27T10:12:29.132Z,2.97
2023-12-27T10:15:32.582Z,1.70
2023-12-27T10:18:35.970Z,2.63
2023-12-27T10:21:43.663Z,1.27
2023-12-27T10:24:47.805Z,1.70
2023-12-27T10:27:50.947Z,1.80
2023-12-27T10:30:55.717Z,4.95
2023-12-27T10:34:04.164Z,1.80
2023-12-27T10:37:13.158Z,2.35
2023-12-27T10:40:16.413Z,2.17
2023-12-27T10:43:20.020Z,1.67
2023-12-27T10:46:23.579Z,3.35
2023-12-27T10:49:28.137Z,2.50
2023-12-27T10:52:31.925Z,2.55
2023-12-27T10:55:36.079Z,3.55
2023-12-27T10:58:44.183Z,3.13
2023-12-27T11:01:47.698Z,1.70
2023-12-27T11:04:52.494Z,2.08
2023-12-27T11:07:56.582Z,1.98
2023-12-27T11:11:02.834Z,2.70
2023-12-27T11:14:09.314Z,2.67
2023-12-27T11:17:14.469Z,2.38
2023-12-27T11:20:19.383Z,4.38
2023-12-27T11:23:23.462Z,2.13
2023-12-27T11:26:27.397Z,2.28
2023-12-27T11:29:31.034Z,3.23
2023-12-27T11:32:34.385Z,2.47
2023-12-27T11:35:38.771Z,3.25
2023-12-27T11:38:42.243Z,2.30
2023-12-27T11:41:45.480Z,2.63
2023-12-27T11:44:55.461Z,2.70
2023-12-27T11:47:58.947Z,4.63
2023-12-27T11:51:03.914Z,2.90
2023-12-27T11:54:09.237Z,2.55
2023-12-27T11:57:12.956Z,6.35
2023-12-27T12:00:31.498Z,3.67
2023-12-27T12:03:38.114Z,3.10
2023-12-27T12:06:47.255Z,3.33
2023-12-27T12:09:51.030Z,3.30
2023-12-27T12:12:58.712Z,3.65
2023-12-27T12:16:02.263Z,4.37
2023-12-27T12:19:06.516Z,4.00
2023-12-27T12:22:09.481Z,3.25
2023-12-27T12:25:12.967Z,3.72
2023-12-27T12:28:15.727Z,6.35
2023-12-27T12:31:19.060Z,3.40
2023-12-27T12:34:23.146Z,5.53
2023-12-27T12:37:26.437Z,4.53
2023-12-27T12:40:29.931Z,6.00
2023-12-27T12:43:33.027Z,3.63
2023-12-27T12:46:36.418Z,3.90
2023-12-27T12:49:39.929Z,4.38
2023-12-27T12:52:43.693Z,4.78
2023-12-27T12:55:46.800Z,3.25
2023-12-27T12:58:50.207Z,7.53
2023-12-27T13:01:53.012Z,3.70
2023-12-27T13:04:59.054Z,3.55
2023-12-27T13:08:07.169Z,3.58
2023-12-27T13:11:12.304Z,6.72
2023-12-27T13:14:17.063Z,4.43
2023-12-27T13:17:20.554Z,7.43
2023-12-27T13:20:23.772Z,4.45
2023-12-27T13:23:26.661Z,4.97
2023-12-27T13:26:29.782Z,3.75
2023-12-27T13:29:32.885Z,5.35
2023-12-27T13:32:37.055Z,2.90
2023-12-27T13:35:40.250Z,4.72
2023-12-27T13:38:43.165Z,6.07
2023-12-27T13:41:46.233Z,5.32
2023-12-27T13:44:50.075Z,5.55
2023-12-27T13:47:53.321Z,3.70
2023-12-27T13:50:56.691Z,6.85
2023-12-27T13:54:05.903Z,6.95
2023-12-27T13:57:15.781Z,4.45
2023-12-27T14:00:20.308Z,4.15
2023-12-27T14:03:23.280Z,7.47
2023-12-27T14:06:26.339Z,8.90
2023-12-27T14:09:30.194Z,4.22
2023-12-27T14:12:33.064Z,5.05
2023-12-27T14:15:36.154Z,4.78
2023-12-27T14:18:39.084Z,4.80
2023-12-27T14:21:42.413Z,5.78
2023-12-27T14:24:45.603Z,6.35
2023-12-27T14:27:48.750Z,4.90
2023-12-27T14:30:52.949Z,4.75
2023-12-27T14:33:57.499Z,5.03
2023-12-27T14:37:00.698Z,4.82
2023-12-27T14:40:07.650Z,6.63
2023-12-27T14:43:11.544Z,3.78
2023-12-27T14:46:16.096Z,3.75
2023-12-27T14:49:19.700Z,5.60
2023-12-27T14:52:22.980Z,4.07
2023-12-27T14:55:26.119Z,4.63
2023-12-27T14:58:31.869Z,3.72
2023-12-27T15:01:35.146Z,4.35
2023-12-27T15:04:38.393Z,3.87
2023-12-27T15:07:41.342Z,5.32
2023-12-27T15:10:44.297Z,4.95
2023-12-27T15:13:47.331Z,7.97
2023-12-27T15:16:51.646Z,8.52
2023-12-27T15:19:54.633Z,10.53
2023-12-27T15:23:01.954Z,10.32
2023-12-27T15:26:04.975Z,9.45
2023-12-27T15:29:07.856Z,15.05
2023-12-27T15:32:10.986Z,13.40
2023-12-27T15:35:15.986Z,29.47
2023-12-27T15:38:18.863Z,19.58
2023-12-27T15:41:27.144Z,22.45
2023-12-27T15:44:30.173Z,18.75
2023-12-27T15:47:33.126Z,23.02
2023-12-27T15:50:36.408Z,22.20
2023-12-27T15:53:39.528Z,21.65
2023-12-27T15:56:46.337Z,27.90
2023-12-27T15:59:51.341Z,25.70
2023-12-27T16:02:54.562Z,27.40
2023-12-27T16:05:57.391Z,23.57
2023-12-27T16:09:00.544Z,35.78
2023-12-27T16:12:04.840Z,32.38
2023-12-27T16:15:10.436Z,34.58
2023-12-27T16:18:13.582Z,36.08
2023-12-27T16:21:20.621Z,35.93
2023-12-27T16:24:24.056Z,35.00
2023-12-27T16:27:27.330Z,28.45
2023-12-27T16:30:33.298Z,23.60
2023-12-27T16:33:36.672Z,23.30
2023-12-27T16:36:39.762Z,26.63
2023-12-27T16:39:42.854Z,22.70
2023-12-27T16:42:50.241Z,24.60
2023-12-27T16:45:53.821Z,25.77
2023-12-27T16:48:59.308Z,20.75
2023-12-27T16:52:03.916Z,25.20
2023-12-27T16:55:07.630Z,30.30
2023-12-27T16:58:11.034Z,31.73
2023-12-27T17:01:14.242Z,36.55
2023-12-27T17:04:17.240Z,31.13
2023-12-27T17:07:20.383Z,28.20
2023-12-27T17:10:24.382Z,22.85
2023-12-27T17:13:27.669Z,42.33
2023-12-27T17:16:30.514Z,17.58
2023-12-27T17:19:33.500Z,27.00
2023-12-27T17:22:36.926Z,23.77
2023-12-27T17:25:41.542Z,20.83
2023-12-27T17:28:44.776Z,30.13
2023-12-27T17:31:49.522Z,24.80
2023-12-27T17:34:52.936Z,25.92
2023-12-27T17:37:56.039Z,20.77
2023-12-27T17:40:59.895Z,23.60
2023-12-27T17:44:03.229Z,24.23
2023-12-27T17:47:06.418Z,25.10
2023-12-27T17:50:09.850Z,17.48
2023-12-27T17:53:14.157Z,25.10
2023-12-27T17:56:17.037Z,18.00
2023-12-27T17:59:22.525Z,17.23
2023-12-27T18:02:25.500Z,21.00
2023-12-27T18:05:32.531Z,19.23
2023-12-27T18:08:38.613Z,21.13
2023-12-27T18:11:42.856Z,19.02
2023-12-27T18:14:47.543Z,25.80
2023-12-27T18:17:50.450Z,19.88
2023-12-27T18:20:54.155Z,17.92
2023-12-27T18:23:57.005Z,24.07
2023-12-27T18:26:59.934Z,20.75
2023-12-27T18:30:02.899Z,33.75
2023-12-27T18:33:06.001Z,29.65
2023-12-27T18:36:09.926Z,33.97
2023-12-27T18:39:14.367Z,25.17
2023-12-27T18:42:17.462Z,28.10
2023-12-27T18:45:20.530Z,24.75
2023-12-27T18:48:23.690Z,24.67
2023-12-27T18:51:26.965Z,30.27
2023-12-27T18:54:29.878Z,29.57
2023-12-27T18:57:34.951Z,25.30
2023-12-27T19:00:38.233Z,27.45
2023-12-27T19:03:43.497Z,22.10
2023-12-27T19:06:46.723Z,26.48
2023-12-27T19:09:49.884Z,22.07
2023-12-27T19:12:53.214Z,25.23
2023-12-27T19:15:56.124Z,28.83
2023-12-27T19:18:59.614Z,27.08
2023-12-27T19:22:04.466Z,25.65
2023-12-27T19:25:07.871Z,17.27
2023-12-27T19:28:11.029Z,19.52
2023-12-27T19:31:14.287Z,20.88
2023-12-27T19:34:20.169Z,16.35
2023-12-27T19:37:23.344Z,14.40
2023-12-27T19:40:26.543Z,15.27
2023-12-27T19:43:30.469Z,10.98
2023-12-27T19:46:33.536Z,14.25
2023-12-27T19:49:36.586Z,11.52
2023-12-27T19:52:39.720Z,13.15
2023-12-27T19:55:42.609Z,13.90
2023-12-27T19:58:45.818Z,8.48
2023-12-27T20:01:49.076Z,13.55
2023-12-27T20:04:52.178Z,8.57
2023-12-27T20:07:55.537Z,11.48
2023-12-27T20:10:58.458Z,11.67
2023-12-27T20:14:01.533Z,8.75
2023-12-27T20:17:04.898Z,9.60
2023-12-27T20:20:08.514Z,9.63
2023-12-27T20:23:13.026Z,9.88
2023-12-27T20:26:16.970Z,10.77
2023-12-27T20:29:20.041Z,13.40
2023-12-27T20:32:22.921Z,12.30
2023-12-27T20:35:25.837Z,11.30
2023-12-27T20:38:30.175Z,9.90
2023-12-27T20:41:34.031Z,12.57
2023-12-27T20:44:37.344Z,10.05
2023-12-27T20:47:40.604Z,9.25
2023-12-27T20:50:43.942Z,10.48
2023-12-27T20:53:47.963Z,7.05
2023-12-27T20:56:51.161Z,10.17
2023-12-27T20:59:54.108Z,9.80
2023-12-27T21:02:56.983Z,11.18
2023-12-27T21:05:59.951Z,10.48
2023-12-27T21:09:04.178Z,9.48
2023-12-27T21:12:07.426Z,9.23
2023-12-27T21:15:11.186Z,10.20
2023-12-27T21:18:14.926Z,9.18
2023-12-27T21:21:18.483Z,12.02
2023-12-27T21:24:21.491Z,13.85
2023-12-27T21:27:24.890Z,12.70
2023-12-27T21:30:27.989Z,22.13
2023-12-27T21:33:31.065Z,18.33
2023-12-27T21:36:34.478Z,14.38
2023-12-27T21:39:37.520Z,16.65
2023-12-27T21:42:40.747Z,17.43
2023-12-27T21:45:44.048Z,18.73
2023-12-27T21:48:47.095Z,24.23
2023-12-27T21:51:50.104Z,12.65
2023-12-27T21:54:53.468Z,16.27
2023-12-27T21:57:56.784Z,19.17
2023-12-27T22:01:00.106Z,21.90
2023-12-27T22:04:05.985Z,18.00
2023-12-27T22:07:10.796Z,16.83
2023-12-27T22:10:34.961Z,15.98
2023-12-27T22:13:40.641Z,13.67
2023-12-27T22:16:45.261Z,12.20
2023-12-27T22:19:48.438Z,16.67
2023-12-27T22:22:52.717Z,14.30
2023-12-27T22:25:55.835Z,12.73
2023-12-27T22:28:59.061Z,12.20
2023-12-27T22:32:02.166Z,10.50
2023-12-27T22:35:05.329Z,11.57
2023-12-27T22:38:09.499Z,12.38
2023-12-27T22:41:12.382Z,12.57
2023-12-27T22:44:15.482Z,14.30
2023-12-27T22:47:20.488Z,11.90
2023-12-27T22:50:24.660Z,10.45
2023-12-27T22:53:27.784Z,12.63
2023-12-27T22:56:30.891Z,11.63
2023-12-27T22:59:33.764Z,9.37
2023-12-27T23:02:37.023Z,11.82
2023-12-27T23:05:39.857Z,10.45
2023-12-27T23:08:42.708Z,11.20
2023-12-27T23:11:46.279Z,11.25
2023-12-27T23:14:49.517Z,8.10
2023-12-27T23:17:52.507Z,7.30
2023-12-27T23:20:55.387Z,9.63
2023-12-27T23:23:58.536Z,11.00
2023-12-27T23:27:01.468Z,11.65
2023-12-27T23:30:05.099Z,8.80
2023-12-27T23:33:08.402Z,9.10
2023-12-27T23:36:12.050Z,8.50
2023-12-27T23:39:16.104Z,10.05
2023-12-27T23:42:19.013Z,8.05
2023-12-27T23:45:21.930Z,7.50
2023-12-27T23:48:25.268Z,6.32
2023-12-27T23:51:29.881Z,6.45
2023-12-27T23:54:33.323Z,9.38
2023-12-27T23:57:36.386Z,8.82
